sensor_id;sensor_type;location;lat;lon;timestamp;temperature;humidity
12827;DHT22;66927;48.812;9.118;2023-09-08T00:00:30;22.60;95.50
12827;DHT22;66927;48.812;9.118;2023-09-08T00:03:17;22.60;95.30
12827;DHT22;66927;48.812;9.118;2023-09-08T00:08:39;22.50;95.40
12827;DHT22;66927;48.812;9.118;2023-09-08T00:11:17;22.50;95.60
12827;DHT22;66927;48.812;9.118;2023-09-08T00:16:36;22.50;95.70
12827;DHT22;66927;48.812;9.118;2023-09-08T00:19:07;22.50;95.50
12827;DHT22;66927;48.812;9.118;2023-09-08T00:21:33;22.60;95.50
12827;DHT22;66927;48.812;9.118;2023-09-08T00:23:59;22.60;95.50
12827;DHT22;66927;48.812;9.118;2023-09-08T00:26:32;22.60;95.60
12827;DHT22;66927;48.812;9.118;2023-09-08T00:29:19;22.60;95.70
12827;DHT22;66927;48.812;9.118;2023-09-08T00:34:37;22.50;95.80
12827;DHT22;66927;48.812;9.118;2023-09-08T00:37:17;22.50;95.90
12827;DHT22;66927;48.812;9.118;2023-09-08T00:39:43;22.40;96.00
12827;DHT22;66927;48.812;9.118;2023-09-08T00:42:21;22.40;96.00
12827;DHT22;66927;48.812;9.118;2023-09-08T00:44:55;22.30;96.10
12827;DHT22;66927;48.812;9.118;2023-09-08T00:47:30;22.20;96.30
12827;DHT22;66927;48.812;9.118;2023-09-08T00:49:59;22.20;96.30
12827;DHT22;66927;48.812;9.118;2023-09-08T00:52:39;22.10;96.50
12827;DHT22;66927;48.812;9.118;2023-09-08T00:55:30;22.10;96.50
12827;DHT22;66927;48.812;9.118;2023-09-08T00:57:58;22.10;96.50
12827;DHT22;66927;48.812;9.118;2023-09-08T01:00:27;22.10;96.50
12827;DHT22;66927;48.812;9.118;2023-09-08T01:03:25;22.10;96.60
12827;DHT22;66927;48.812;9.118;2023-09-08T01:05:51;22.10;96.60
12827;DHT22;66927;48.812;9.118;2023-09-08T01:08:31;22.10;96.60
12827;DHT22;66927;48.812;9.118;2023-09-08T01:10:59;22.00;96.60
12827;DHT22;66927;48.812;9.118;2023-09-08T01:13:25;22.00;96.80
12827;DHT22;66927;48.812;9.118;2023-09-08T01:16:02;22.00;96.70
12827;DHT22;66927;48.812;9.118;2023-09-08T01:18:28;21.90;96.70
12827;DHT22;66927;48.812;9.118;2023-09-08T01:24:29;21.90;96.70
12827;DHT22;66927;48.812;9.118;2023-09-08T01:27:02;21.90;96.80
12827;DHT22;66927;48.812;9.118;2023-09-08T01:29:31;22.00;96.70
12827;DHT22;66927;48.812;9.118;2023-09-08T01:32:08;21.80;96.70
12827;DHT22;66927;48.812;9.118;2023-09-08T01:34:35;21.80;96.80
12827;DHT22;66927;48.812;9.118;2023-09-08T01:37:02;21.80;96.70
12827;DHT22;66927;48.812;9.118;2023-09-08T01:39:37;21.80;96.60
12827;DHT22;66927;48.812;9.118;2023-09-08T01:42:13;21.70;96.80
12827;DHT22;66927;48.812;9.118;2023-09-08T01:44:39;21.70;96.70
12827;DHT22;66927;48.812;9.118;2023-09-08T01:47:08;21.60;96.80
12827;DHT22;66927;48.812;9.118;2023-09-08T01:49:34;21.60;96.90
12827;DHT22;66927;48.812;9.118;2023-09-08T01:52:13;21.70;96.90
12827;DHT22;66927;48.812;9.118;2023-09-08T01:54:44;21.50;97.00
12827;DHT22;66927;48.812;9.118;2023-09-08T01:57:11;21.50;97.10
12827;DHT22;66927;48.812;9.118;2023-09-08T01:59:42;21.50;97.10
12827;DHT22;66927;48.812;9.118;2023-09-08T02:02:14;21.50;97.10
12827;DHT22;66927;48.812;9.118;2023-09-08T02:04:48;21.50;97.20
12827;DHT22;66927;48.812;9.118;2023-09-08T02:07:14;21.40;97.30
12827;DHT22;66927;48.812;9.118;2023-09-08T02:09:40;21.40;97.30
12827;DHT22;66927;48.812;9.118;2023-09-08T02:12:07;21.20;97.20
12827;DHT22;66927;48.812;9.118;2023-09-08T02:14:36;21.40;97.40
12827;DHT22;66927;48.812;9.118;2023-09-08T02:17:03;21.30;97.40
12827;DHT22;66927;48.812;9.118;2023-09-08T02:19:35;21.20;97.60
12827;DHT22;66927;48.812;9.118;2023-09-08T02:22:10;21.20;97.60
12827;DHT22;66927;48.812;9.118;2023-09-08T02:24:40;21.20;97.70
12827;DHT22;66927;48.812;9.118;2023-09-08T02:27:20;21.40;97.80
12827;DHT22;66927;48.812;9.118;2023-09-08T02:29:49;21.20;97.60
12827;DHT22;66927;48.812;9.118;2023-09-08T02:32:25;21.20;97.70
12827;DHT22;66927;48.812;9.118;2023-09-08T02:34:57;21.10;97.70
12827;DHT22;66927;48.812;9.118;2023-09-08T02:37:22;21.20;97.80
12827;DHT22;66927;48.812;9.118;2023-09-08T02:39:48;21.10;97.70
12827;DHT22;66927;48.812;9.118;2023-09-08T02:42:13;21.10;97.80
12827;DHT22;66927;48.812;9.118;2023-09-08T02:44:39;21.10;97.90
12827;DHT22;66927;48.812;9.118;2023-09-08T02:47:04;21.00;97.80
12827;DHT22;66927;48.812;9.118;2023-09-08T02:49:31;21.00;97.80
12827;DHT22;66927;48.812;9.118;2023-09-08T02:51:57;21.00;97.90
12827;DHT22;66927;48.812;9.118;2023-09-08T02:54:23;21.00;97.90
12827;DHT22;66927;48.812;9.118;2023-09-08T02:56:48;21.00;97.80
12827;DHT22;66927;48.812;9.118;2023-09-08T02:59:14;20.90;97.80
12827;DHT22;66927;48.812;9.118;2023-09-08T03:01:39;20.90;97.80
12827;DHT22;66927;48.812;9.118;2023-09-08T03:04:05;20.90;97.90
12827;DHT22;66927;48.812;9.118;2023-09-08T03:06:32;20.90;98.00
12827;DHT22;66927;48.812;9.118;2023-09-08T03:08:58;20.80;98.10
12827;DHT22;66927;48.812;9.118;2023-09-08T03:11:25;20.80;98.00
12827;DHT22;66927;48.812;9.118;2023-09-08T03:13:50;20.80;98.00
12827;DHT22;66927;48.812;9.118;2023-09-08T03:16:16;20.80;98.00
12827;DHT22;66927;48.812;9.118;2023-09-08T03:18:42;20.80;98.00
12827;DHT22;66927;48.812;9.118;2023-09-08T03:21:07;20.80;98.10
12827;DHT22;66927;48.812;9.118;2023-09-08T03:23:42;20.80;98.10
12827;DHT22;66927;48.812;9.118;2023-09-08T03:26:09;20.80;98.30
12827;DHT22;66927;48.812;9.118;2023-09-08T03:28:36;20.80;98.20
12827;DHT22;66927;48.812;9.118;2023-09-08T03:31:02;20.80;98.20
12827;DHT22;66927;48.812;9.118;2023-09-08T03:33:28;20.80;98.20
12827;DHT22;66927;48.812;9.118;2023-09-08T03:35:54;20.70;98.10
12827;DHT22;66927;48.812;9.118;2023-09-08T03:38:21;20.70;98.10
12827;DHT22;66927;48.812;9.118;2023-09-08T03:40:47;20.70;98.20
12827;DHT22;66927;48.812;9.118;2023-09-08T03:43:13;20.60;98.50
12827;DHT22;66927;48.812;9.118;2023-09-08T03:45:39;20.50;98.30
12827;DHT22;66927;48.812;9.118;2023-09-08T03:48:05;20.50;98.20
12827;DHT22;66927;48.812;9.118;2023-09-08T03:50:30;20.40;98.30
12827;DHT22;66927;48.812;9.118;2023-09-08T03:52:56;20.40;98.30
12827;DHT22;66927;48.812;9.118;2023-09-08T03:55:22;20.40;98.30
12827;DHT22;66927;48.812;9.118;2023-09-08T03:57:48;20.40;98.30
12827;DHT22;66927;48.812;9.118;2023-09-08T04:00:13;20.40;98.30
12827;DHT22;66927;48.812;9.118;2023-09-08T04:02:45;20.40;98.40
12827;DHT22;66927;48.812;9.118;2023-09-08T04:05:10;20.40;98.50
12827;DHT22;66927;48.812;9.118;2023-09-08T04:07:36;20.40;98.40
12827;DHT22;66927;48.812;9.118;2023-09-08T04:10:02;20.30;98.60
12827;DHT22;66927;48.812;9.118;2023-09-08T04:12:28;20.30;98.60
12827;DHT22;66927;48.812;9.118;2023-09-08T04:14:54;20.40;98.60
12827;DHT22;66927;48.812;9.118;2023-09-08T04:17:19;20.40;98.60
12827;DHT22;66927;48.812;9.118;2023-09-08T04:19:45;20.40;98.60
12827;DHT22;66927;48.812;9.118;2023-09-08T04:22:10;20.40;98.70
12827;DHT22;66927;48.812;9.118;2023-09-08T04:24:37;20.30;98.80
12827;DHT22;66927;48.812;9.118;2023-09-08T04:27:03;20.30;98.70
12827;DHT22;66927;48.812;9.118;2023-09-08T04:29:29;20.30;99.10
12827;DHT22;66927;48.812;9.118;2023-09-08T04:31:56;20.30;98.70
12827;DHT22;66927;48.812;9.118;2023-09-08T04:34:21;20.30;98.80
12827;DHT22;66927;48.812;9.118;2023-09-08T04:36:47;20.30;98.80
12827;DHT22;66927;48.812;9.118;2023-09-08T04:39:13;20.30;98.70
12827;DHT22;66927;48.812;9.118;2023-09-08T04:41:40;20.40;98.70
12827;DHT22;66927;48.812;9.118;2023-09-08T04:44:06;20.30;98.80
12827;DHT22;66927;48.812;9.118;2023-09-08T04:46:32;20.20;99.00
12827;DHT22;66927;48.812;9.118;2023-09-08T04:48:57;20.20;99.10
12827;DHT22;66927;48.812;9.118;2023-09-08T04:51:25;20.20;99.10
12827;DHT22;66927;48.812;9.118;2023-09-08T04:53:51;20.20;99.00
12827;DHT22;66927;48.812;9.118;2023-09-08T04:56:16;20.20;99.10
12827;DHT22;66927;48.812;9.118;2023-09-08T04:58:42;20.20;99.10
12827;DHT22;66927;48.812;9.118;2023-09-08T05:01:07;20.20;99.00
12827;DHT22;66927;48.812;9.118;2023-09-08T05:03:33;20.30;99.00
12827;DHT22;66927;48.812;9.118;2023-09-08T05:05:58;20.30;99.00
12827;DHT22;66927;48.812;9.118;2023-09-08T05:08:24;20.30;98.90
12827;DHT22;66927;48.812;9.118;2023-09-08T05:10:51;20.30;99.10
12827;DHT22;66927;48.812;9.118;2023-09-08T05:13:17;20.30;99.00
12827;DHT22;66927;48.812;9.118;2023-09-08T05:15:42;20.30;98.90
12827;DHT22;66927;48.812;9.118;2023-09-08T05:18:09;20.30;99.00
12827;DHT22;66927;48.812;9.118;2023-09-08T05:20:35;20.20;99.00
12827;DHT22;66927;48.812;9.118;2023-09-08T05:23:00;20.30;99.00
12827;DHT22;66927;48.812;9.118;2023-09-08T05:25:26;20.30;99.00
12827;DHT22;66927;48.812;9.118;2023-09-08T05:27:51;20.30;99.00
12827;DHT22;66927;48.812;9.118;2023-09-08T05:30:17;20.30;99.00
12827;DHT22;66927;48.812;9.118;2023-09-08T05:32:43;20.20;99.20
12827;DHT22;66927;48.812;9.118;2023-09-08T05:35:08;20.20;99.30
12827;DHT22;66927;48.812;9.118;2023-09-08T05:37:34;20.20;99.40
12827;DHT22;66927;48.812;9.118;2023-09-08T05:39:59;20.20;99.30
12827;DHT22;66927;48.812;9.118;2023-09-08T05:42:25;20.20;99.40
12827;DHT22;66927;48.812;9.118;2023-09-08T05:44:50;20.10;99.70
12827;DHT22;66927;48.812;9.118;2023-09-08T05:47:16;20.20;99.80
12827;DHT22;66927;48.812;9.118;2023-09-08T05:49:41;20.20;99.70
12827;DHT22;66927;48.812;9.118;2023-09-08T05:52:07;20.10;99.80
12827;DHT22;66927;48.812;9.118;2023-09-08T05:54:32;20.10;99.90
12827;DHT22;66927;48.812;9.118;2023-09-08T05:56:58;20.10;99.90
12827;DHT22;66927;48.812;9.118;2023-09-08T05:59:24;20.00;99.90
12827;DHT22;66927;48.812;9.118;2023-09-08T06:01:50;20.00;99.90
12827;DHT22;66927;48.812;9.118;2023-09-08T06:04:15;20.10;99.90
12827;DHT22;66927;48.812;9.118;2023-09-08T06:06:41;20.20;99.90
12827;DHT22;66927;48.812;9.118;2023-09-08T06:09:07;20.10;99.90
12827;DHT22;66927;48.812;9.118;2023-09-08T06:11:33;20.20;99.90
12827;DHT22;66927;48.812;9.118;2023-09-08T06:13:59;20.20;99.90
12827;DHT22;66927;48.812;9.118;2023-09-08T06:16:26;20.20;99.90
12827;DHT22;66927;48.812;9.118;2023-09-08T06:18:51;20.20;99.90
12827;DHT22;66927;48.812;9.118;2023-09-08T06:21:17;20.10;99.90
12827;DHT22;66927;48.812;9.118;2023-09-08T06:23:45;20.10;99.90
12827;DHT22;66927;48.812;9.118;2023-09-08T06:26:12;20.10;99.90
12827;DHT22;66927;48.812;9.118;2023-09-08T06:28:37;20.20;99.90
12827;DHT22;66927;48.812;9.118;2023-09-08T06:31:05;20.20;99.90
12827;DHT22;66927;48.812;9.118;2023-09-08T06:33:30;20.20;99.90
12827;DHT22;66927;48.812;9.118;2023-09-08T06:35:56;20.20;99.90
12827;DHT22;66927;48.812;9.118;2023-09-08T06:38:22;20.30;99.90
12827;DHT22;66927;48.812;9.118;2023-09-08T06:40:47;20.30;99.90
12827;DHT22;66927;48.812;9.118;2023-09-08T06:43:15;20.30;99.90
12827;DHT22;66927;48.812;9.118;2023-09-08T06:45:40;20.30;99.90
12827;DHT22;66927;48.812;9.118;2023-09-08T06:48:06;20.40;99.90
12827;DHT22;66927;48.812;9.118;2023-09-08T06:50:31;20.40;99.90
12827;DHT22;66927;48.812;9.118;2023-09-08T06:52:57;20.40;99.90
12827;DHT22;66927;48.812;9.118;2023-09-08T06:55:22;20.50;99.90
12827;DHT22;66927;48.812;9.118;2023-09-08T06:57:48;20.50;99.90
12827;DHT22;66927;48.812;9.118;2023-09-08T07:00:14;20.60;99.90
12827;DHT22;66927;48.812;9.118;2023-09-08T07:02:42;20.60;99.90
12827;DHT22;66927;48.812;9.118;2023-09-08T07:05:08;20.70;99.90
12827;DHT22;66927;48.812;9.118;2023-09-08T07:07:34;20.70;99.90
12827;DHT22;66927;48.812;9.118;2023-09-08T07:10:02;20.80;99.90
12827;DHT22;66927;48.812;9.118;2023-09-08T07:12:27;20.90;99.90
12827;DHT22;66927;48.812;9.118;2023-09-08T07:14:53;20.90;99.90
12827;DHT22;66927;48.812;9.118;2023-09-08T07:17:19;20.90;99.90
12827;DHT22;66927;48.812;9.118;2023-09-08T07:19:45;21.00;99.90
12827;DHT22;66927;48.812;9.118;2023-09-08T07:22:10;21.00;99.90
12827;DHT22;66927;48.812;9.118;2023-09-08T07:24:36;21.10;99.90
12827;DHT22;66927;48.812;9.118;2023-09-08T07:27:01;21.10;99.90
12827;DHT22;66927;48.812;9.118;2023-09-08T07:29:27;21.20;99.90
12827;DHT22;66927;48.812;9.118;2023-09-08T07:31:56;21.30;99.90
12827;DHT22;66927;48.812;9.118;2023-09-08T07:34:23;21.30;99.90
12827;DHT22;66927;48.812;9.118;2023-09-08T07:36:49;21.30;99.90
12827;DHT22;66927;48.812;9.118;2023-09-08T07:39:14;21.30;99.90
12827;DHT22;66927;48.812;9.118;2023-09-08T07:41:40;21.40;99.90
12827;DHT22;66927;48.812;9.118;2023-09-08T07:44:09;21.40;99.90
12827;DHT22;66927;48.812;9.118;2023-09-08T07:46:35;21.40;99.90
12827;DHT22;66927;48.812;9.118;2023-09-08T07:49:01;21.50;99.90
12827;DHT22;66927;48.812;9.118;2023-09-08T07:51:27;21.50;99.90
12827;DHT22;66927;48.812;9.118;2023-09-08T07:53:55;21.60;99.90
12827;DHT22;66927;48.812;9.118;2023-09-08T07:56:21;21.60;99.90
12827;DHT22;66927;48.812;9.118;2023-09-08T07:58:47;21.60;99.90
12827;DHT22;66927;48.812;9.118;2023-09-08T08:01:13;21.70;99.90
12827;DHT22;66927;48.812;9.118;2023-09-08T08:03:39;21.70;99.90
12827;DHT22;66927;48.812;9.118;2023-09-08T08:06:04;21.80;99.90
12827;DHT22;66927;48.812;9.118;2023-09-08T08:08:31;21.90;99.90
12827;DHT22;66927;48.812;9.118;2023-09-08T08:10:57;22.00;99.90
12827;DHT22;66927;48.812;9.118;2023-09-08T08:13:23;22.00;99.90
12827;DHT22;66927;48.812;9.118;2023-09-08T08:15:49;22.10;99.90
12827;DHT22;66927;48.812;9.118;2023-09-08T08:18:15;22.20;99.90
12827;DHT22;66927;48.812;9.118;2023-09-08T08:20:40;22.30;99.90
12827;DHT22;66927;48.812;9.118;2023-09-08T08:23:06;22.30;99.90
12827;DHT22;66927;48.812;9.118;2023-09-08T08:25:33;22.30;99.90
12827;DHT22;66927;48.812;9.118;2023-09-08T08:27:59;22.40;99.90
12827;DHT22;66927;48.812;9.118;2023-09-08T08:30:26;22.50;99.90
12827;DHT22;66927;48.812;9.118;2023-09-08T08:32:52;22.50;99.90
12827;DHT22;66927;48.812;9.118;2023-09-08T08:35:19;22.60;99.90
12827;DHT22;66927;48.812;9.118;2023-09-08T08:37:45;22.70;99.90
12827;DHT22;66927;48.812;9.118;2023-09-08T08:40:11;22.80;99.90
12827;DHT22;66927;48.812;9.118;2023-09-08T08:42:38;22.90;99.90
12827;DHT22;66927;48.812;9.118;2023-09-08T08:45:04;22.90;99.90
12827;DHT22;66927;48.812;9.118;2023-09-08T08:47:30;22.90;99.90
12827;DHT22;66927;48.812;9.118;2023-09-08T08:50:00;23.00;99.90
12827;DHT22;66927;48.812;9.118;2023-09-08T08:52:27;23.00;99.90
12827;DHT22;66927;48.812;9.118;2023-09-08T08:54:53;23.10;99.90
12827;DHT22;66927;48.812;9.118;2023-09-08T08:57:20;23.20;99.90
12827;DHT22;66927;48.812;9.118;2023-09-08T08:59:45;23.20;99.90
12827;DHT22;66927;48.812;9.118;2023-09-08T09:02:12;23.30;99.90
12827;DHT22;66927;48.812;9.118;2023-09-08T09:04:38;23.40;99.90
12827;DHT22;66927;48.812;9.118;2023-09-08T09:07:05;23.40;99.90
12827;DHT22;66927;48.812;9.118;2023-09-08T09:09:31;23.50;99.90
12827;DHT22;66927;48.812;9.118;2023-09-08T09:11:57;23.60;99.90
12827;DHT22;66927;48.812;9.118;2023-09-08T09:14:23;23.70;99.90
12827;DHT22;66927;48.812;9.118;2023-09-08T09:16:49;23.70;99.90
12827;DHT22;66927;48.812;9.118;2023-09-08T09:19:22;23.80;99.90
12827;DHT22;66927;48.812;9.118;2023-09-08T09:21:53;23.90;99.90
12827;DHT22;66927;48.812;9.118;2023-09-08T09:24:34;24.00;99.90
12827;DHT22;66927;48.812;9.118;2023-09-08T09:27:00;24.10;99.90
12827;DHT22;66927;48.812;9.118;2023-09-08T09:29:27;24.10;99.90
12827;DHT22;66927;48.812;9.118;2023-09-08T09:32:01;24.20;99.90
12827;DHT22;66927;48.812;9.118;2023-09-08T09:34:28;24.30;99.90
12827;DHT22;66927;48.812;9.118;2023-09-08T09:36:53;24.30;99.90
12827;DHT22;66927;48.812;9.118;2023-09-08T09:39:20;24.40;99.90
12827;DHT22;66927;48.812;9.118;2023-09-08T09:41:47;24.40;99.90
12827;DHT22;66927;48.812;9.118;2023-09-08T09:44:13;24.50;99.90
12827;DHT22;66927;48.812;9.118;2023-09-08T09:46:46;24.60;99.90
12827;DHT22;66927;48.812;9.118;2023-09-08T09:49:16;24.70;99.90
12827;DHT22;66927;48.812;9.118;2023-09-08T09:51:44;24.70;99.80
12827;DHT22;66927;48.812;9.118;2023-09-08T09:54:11;24.80;99.90
12827;DHT22;66927;48.812;9.118;2023-09-08T09:56:38;24.80;99.80
12827;DHT22;66927;48.812;9.118;2023-09-08T09:59:04;24.90;99.80
12827;DHT22;66927;48.812;9.118;2023-09-08T10:01:31;25.00;99.90
12827;DHT22;66927;48.812;9.118;2023-09-08T10:03:58;25.10;99.50
12827;DHT22;66927;48.812;9.118;2023-09-08T10:06:25;25.20;99.30
12827;DHT22;66927;48.812;9.118;2023-09-08T10:08:51;25.20;99.30
12827;DHT22;66927;48.812;9.118;2023-09-08T10:11:19;25.30;99.20
12827;DHT22;66927;48.812;9.118;2023-09-08T10:13:47;25.40;99.10
12827;DHT22;66927;48.812;9.118;2023-09-08T10:16:16;25.50;99.20
12827;DHT22;66927;48.812;9.118;2023-09-08T10:18:46;25.60;98.80
12827;DHT22;66927;48.812;9.118;2023-09-08T10:21:13;25.60;98.90
12827;DHT22;66927;48.812;9.118;2023-09-08T10:23:46;25.70;98.50
12827;DHT22;66927;48.812;9.118;2023-09-08T10:26:16;25.70;98.60
12827;DHT22;66927;48.812;9.118;2023-09-08T10:28:44;25.90;98.50
12827;DHT22;66927;48.812;9.118;2023-09-08T10:31:10;25.90;97.90
12827;DHT22;66927;48.812;9.118;2023-09-08T10:33:36;26.00;98.10
12827;DHT22;66927;48.812;9.118;2023-09-08T10:36:03;26.10;97.90
12827;DHT22;66927;48.812;9.118;2023-09-08T10:38:34;26.10;98.00
12827;DHT22;66927;48.812;9.118;2023-09-08T10:44:02;26.30;97.30
12827;DHT22;66927;48.812;9.118;2023-09-08T10:46:29;26.40;97.20
12827;DHT22;66927;48.812;9.118;2023-09-08T10:49:04;26.50;97.30
12827;DHT22;66927;48.812;9.118;2023-09-08T10:51:32;26.60;97.20
12827;DHT22;66927;48.812;9.118;2023-09-08T10:53:58;26.70;96.90
12827;DHT22;66927;48.812;9.118;2023-09-08T10:56:29;26.90;97.20
12827;DHT22;66927;48.812;9.118;2023-09-08T10:59:12;27.20;96.60
12827;DHT22;66927;48.812;9.118;2023-09-08T11:01:38;27.60;96.10
12827;DHT22;66927;48.812;9.118;2023-09-08T11:04:04;28.00;95.70
12827;DHT22;66927;48.812;9.118;2023-09-08T11:06:34;28.40;94.90
12827;DHT22;66927;48.812;9.118;2023-09-08T11:09:07;28.80;94.80
12827;DHT22;66927;48.812;9.118;2023-09-08T11:11:33;29.20;94.40
12827;DHT22;66927;48.812;9.118;2023-09-08T11:13:59;29.20;93.20
12827;DHT22;66927;48.812;9.118;2023-09-08T11:16:25;29.70;93.10
12827;DHT22;66927;48.812;9.118;2023-09-08T11:18:54;29.90;92.30
12827;DHT22;66927;48.812;9.118;2023-09-08T11:21:20;29.80;92.10
12827;DHT22;66927;48.812;9.118;2023-09-08T11:23:46;29.80;92.10
12827;DHT22;66927;48.812;9.118;2023-09-08T11:26:12;30.00;92.30
12827;DHT22;66927;48.812;9.118;2023-09-08T11:28:37;30.30;92.30
12827;DHT22;66927;48.812;9.118;2023-09-08T11:31:03;30.50;91.40
12827;DHT22;66927;48.812;9.118;2023-09-08T11:33:33;30.80;91.60
12827;DHT22;66927;48.812;9.118;2023-09-08T11:36:11;31.00;90.70
12827;DHT22;66927;48.812;9.118;2023-09-08T11:38:38;31.10;91.00
12827;DHT22;66927;48.812;9.118;2023-09-08T11:41:04;30.70;90.60
12827;DHT22;66927;48.812;9.118;2023-09-08T11:43:29;30.50;90.70
12827;DHT22;66927;48.812;9.118;2023-09-08T11:45:58;30.50;90.90
12827;DHT22;66927;48.812;9.118;2023-09-08T11:48:24;30.70;90.50
12827;DHT22;66927;48.812;9.118;2023-09-08T11:50:53;30.90;91.10
12827;DHT22;66927;48.812;9.118;2023-09-08T11:53:22;31.10;90.40
12827;DHT22;66927;48.812;9.118;2023-09-08T11:55:49;31.30;90.50
12827;DHT22;66927;48.812;9.118;2023-09-08T11:58:15;31.50;89.40
12827;DHT22;66927;48.812;9.118;2023-09-08T12:00:42;31.70;88.70
12827;DHT22;66927;48.812;9.118;2023-09-08T12:03:13;31.70;88.30
12827;DHT22;66927;48.812;9.118;2023-09-08T12:05:39;31.90;88.20
12827;DHT22;66927;48.812;9.118;2023-09-08T12:08:06;32.00;87.70
12827;DHT22;66927;48.812;9.118;2023-09-08T12:10:39;32.10;88.60
12827;DHT22;66927;48.812;9.118;2023-09-08T12:13:06;32.10;88.90
12827;DHT22;66927;48.812;9.118;2023-09-08T12:15:40;32.00;87.50
12827;DHT22;66927;48.812;9.118;2023-09-08T12:18:07;31.80;87.60
12827;DHT22;66927;48.812;9.118;2023-09-08T12:20:34;31.90;87.70
12827;DHT22;66927;48.812;9.118;2023-09-08T12:23:03;32.00;88.20
12827;DHT22;66927;48.812;9.118;2023-09-08T12:25:28;32.20;87.90
12827;DHT22;66927;48.812;9.118;2023-09-08T12:27:57;32.30;86.60
12827;DHT22;66927;48.812;9.118;2023-09-08T12:30:23;32.30;86.60
12827;DHT22;66927;48.812;9.118;2023-09-08T12:32:58;32.40;87.00
12827;DHT22;66927;48.812;9.118;2023-09-08T12:35:25;32.20;86.70
12827;DHT22;66927;48.812;9.118;2023-09-08T12:38:00;32.40;91.80
12827;DHT22;66927;48.812;9.118;2023-09-08T12:40:27;32.40;91.50
12827;DHT22;66927;48.812;9.118;2023-09-08T12:42:53;32.40;92.10
12827;DHT22;66927;48.812;9.118;2023-09-08T12:45:21;32.40;91.40
12827;DHT22;66927;48.812;9.118;2023-09-08T12:47:48;32.30;88.20
12827;DHT22;66927;48.812;9.118;2023-09-08T12:50:14;32.30;92.10
12827;DHT22;66927;48.812;9.118;2023-09-08T12:52:40;32.40;91.50
12827;DHT22;66927;48.812;9.118;2023-09-08T12:55:06;32.30;87.20
12827;DHT22;66927;48.812;9.118;2023-09-08T12:57:33;32.30;89.70
12827;DHT22;66927;48.812;9.118;2023-09-08T12:59:58;32.40;91.20
12827;DHT22;66927;48.812;9.118;2023-09-08T13:02:24;32.30;85.90
12827;DHT22;66927;48.812;9.118;2023-09-08T13:04:49;31.90;86.10
12827;DHT22;66927;48.812;9.118;2023-09-08T13:07:16;32.00;90.10
12827;DHT22;66927;48.812;9.118;2023-09-08T13:09:42;32.10;90.80
12827;DHT22;66927;48.812;9.118;2023-09-08T13:12:08;32.10;91.70
12827;DHT22;66927;48.812;9.118;2023-09-08T13:14:39;32.20;91.40
12827;DHT22;66927;48.812;9.118;2023-09-08T13:17:04;32.20;90.20
12827;DHT22;66927;48.812;9.118;2023-09-08T13:19:31;32.30;86.50
12827;DHT22;66927;48.812;9.118;2023-09-08T13:21:57;32.40;89.50
12827;DHT22;66927;48.812;9.118;2023-09-08T13:24:23;32.50;87.30
12827;DHT22;66927;48.812;9.118;2023-09-08T13:26:49;32.60;88.30
12827;DHT22;66927;48.812;9.118;2023-09-08T13:29:16;32.70;90.10
12827;DHT22;66927;48.812;9.118;2023-09-08T13:31:42;32.70;88.90
12827;DHT22;66927;48.812;9.118;2023-09-08T13:34:09;32.60;84.30
12827;DHT22;66927;48.812;9.118;2023-09-08T13:36:34;32.40;82.80
12827;DHT22;66927;48.812;9.118;2023-09-08T13:39:00;32.40;84.30
12827;DHT22;66927;48.812;9.118;2023-09-08T13:44:09;32.50;86.10
12827;DHT22;66927;48.812;9.118;2023-09-08T13:46:34;32.50;86.10
12827;DHT22;66927;48.812;9.118;2023-09-08T13:49:00;32.60;84.30
12827;DHT22;66927;48.812;9.118;2023-09-08T13:51:25;32.70;85.30
12827;DHT22;66927;48.812;9.118;2023-09-08T13:53:51;32.80;82.70
12827;DHT22;66927;48.812;9.118;2023-09-08T13:56:16;32.70;80.80
12827;DHT22;66927;48.812;9.118;2023-09-08T13:58:42;32.60;81.70
12827;DHT22;66927;48.812;9.118;2023-09-08T14:01:10;32.30;78.90
12827;DHT22;66927;48.812;9.118;2023-09-08T14:03:36;32.40;81.30
12827;DHT22;66927;48.812;9.118;2023-09-08T14:06:03;32.40;82.40
12827;DHT22;66927;48.812;9.118;2023-09-08T14:08:29;32.30;81.10
12827;DHT22;66927;48.812;9.118;2023-09-08T14:10:54;32.20;79.90
12827;DHT22;66927;48.812;9.118;2023-09-08T14:13:20;32.20;82.30
12827;DHT22;66927;48.812;9.118;2023-09-08T14:15:46;32.30;81.50
12827;DHT22;66927;48.812;9.118;2023-09-08T14:18:12;32.30;82.00
12827;DHT22;66927;48.812;9.118;2023-09-08T14:20:39;32.40;82.50
12827;DHT22;66927;48.812;9.118;2023-09-08T14:23:05;32.40;83.00
12827;DHT22;66927;48.812;9.118;2023-09-08T14:25:33;32.50;82.50
12827;DHT22;66927;48.812;9.118;2023-09-08T14:27:58;32.50;81.00
12827;DHT22;66927;48.812;9.118;2023-09-08T14:30:24;32.40;80.00
12827;DHT22;66927;48.812;9.118;2023-09-08T14:32:50;32.40;80.00
12827;DHT22;66927;48.812;9.118;2023-09-08T14:35:16;32.30;80.90
12827;DHT22;66927;48.812;9.118;2023-09-08T14:37:41;32.20;82.00
12827;DHT22;66927;48.812;9.118;2023-09-08T14:40:07;32.20;83.10
12827;DHT22;66927;48.812;9.118;2023-09-08T14:42:33;32.30;83.00
12827;DHT22;66927;48.812;9.118;2023-09-08T14:44:58;32.30;83.50
12827;DHT22;66927;48.812;9.118;2023-09-08T14:47:24;32.30;83.20
12827;DHT22;66927;48.812;9.118;2023-09-08T14:49:49;32.30;81.80
12827;DHT22;66927;48.812;9.118;2023-09-08T14:52:16;32.30;82.50
12827;DHT22;66927;48.812;9.118;2023-09-08T14:54:45;32.20;82.90
12827;DHT22;66927;48.812;9.118;2023-09-08T14:57:11;32.10;83.10
12827;DHT22;66927;48.812;9.118;2023-09-08T14:59:36;32.20;82.60
12827;DHT22;66927;48.812;9.118;2023-09-08T15:02:02;32.10;82.60
12827;DHT22;66927;48.812;9.118;2023-09-08T15:04:29;32.10;82.10
12827;DHT22;66927;48.812;9.118;2023-09-08T15:06:54;32.10;83.30
12827;DHT22;66927;48.812;9.118;2023-09-08T15:09:20;32.10;83.60
12827;DHT22;66927;48.812;9.118;2023-09-08T15:11:45;32.00;83.60
12827;DHT22;66927;48.812;9.118;2023-09-08T15:14:11;32.10;83.70
12827;DHT22;66927;48.812;9.118;2023-09-08T15:16:37;32.00;83.70
12827;DHT22;66927;48.812;9.118;2023-09-08T15:19:03;31.90;83.60
12827;DHT22;66927;48.812;9.118;2023-09-08T15:21:29;31.80;83.20
12827;DHT22;66927;48.812;9.118;2023-09-08T15:23:56;31.80;83.50
12827;DHT22;66927;48.812;9.118;2023-09-08T15:26:21;31.70;83.50
12827;DHT22;66927;48.812;9.118;2023-09-08T15:28:47;31.70;83.90
12827;DHT22;66927;48.812;9.118;2023-09-08T15:31:16;31.70;83.70
12827;DHT22;66927;48.812;9.118;2023-09-08T15:33:41;31.60;83.60
12827;DHT22;66927;48.812;9.118;2023-09-08T15:36:07;31.60;83.50
12827;DHT22;66927;48.812;9.118;2023-09-08T15:38:33;31.60;83.60
12827;DHT22;66927;48.812;9.118;2023-09-08T15:41:12;31.50;83.70
12827;DHT22;66927;48.812;9.118;2023-09-08T15:43:44;31.30;83.40
12827;DHT22;66927;48.812;9.118;2023-09-08T15:46:10;31.30;83.80
12827;DHT22;66927;48.812;9.118;2023-09-08T15:48:37;31.30;85.20